Airfield :
LOGIN :

Register | Disclaimer

   EN    FR    IT 

 










Legend :    VFR   Marginal VFR   IFR   Intensive IFR   Very Intensive IFR
Visi :
Ceiling :
>= 8 km
>= 3000ft
5 to 8 km
1000 to 3000 ft
1500m to 5 km
500 to 1000 ft
800 to 1500m
200 to 500 ft
< 800m
< 200 ft
Symbols :   Thunderstorms  Fog  Heavy snow  Heavy precipitations  Wind > 20 kt
SIGMETs :     Misc.  Thunderstorms  Icing  Turbulence  Mountain Waves  Volcanic Ashes







- Airport Elevation : 1300 ft
- IATA code : LIG
- Download approach charts


LFBL - Limoges

CURRENT METAR :
  • 170830Z AUTO VRB02KT 9999 BKN027 09/08 Q1018 NOSIG

EXPIRED METARs :
  • 170800Z AUTO 03003KT 9000 BKN026 08/07 Q1019 TEMPO 2500 BR
  • 170730Z AUTO 04003KT 9000 OVC026 08/07 Q1019 TEMPO 2500 BR
  • 170700Z AUTO 04003KT 4200 1000 R21/4700D R03/P5000 BR FEW003 SCT032 07/06 Q1019 BECMG 9999 NSW
  • 170630Z AUTO 05003KT 8000 NSC 08/07 Q1019 NOSIG
  • 170600Z AUTO 05003KT CAVOK 08/07 Q1019 TEMPO 0600 FG VV///

TAF AMD TAF LFBL
Valid from the 17 at 07:00 until the 18 at 06:00 UTC


170713Z 1707/1806 04003KT 7000 BKN025
TEMPO 1707/1709 2500 BR
TEMPO 1710/1716 CAVOK
BECMG 1717/1719 07013KT
TEMPO 1720/1724 13013KT RA BKN013
BECMG 1800/1802 CAVOK
ATIS : +33 5 55 48 40 37
No reported NOTAMs for that airfield.



MET'MAP, your aeronautical weather chart ! - Copyright ORBIFLY December 2007 - Disclaimer

ORBIFLY MET'MAP TEAM :

Programming & Development : Alexandra Zaïnal
Concept & Development : Baudouin d'Aumeries
Co-Development & Prog : Marc-Olivier Méhu
Technical & hardware support : Manuel Goepfert

Contact : metmap@orbifly.com




SOURCES & CREDITS :

   NOAA